Time;durP1;ratioP1;P1;durP2;ratioP2;P2;SDS_P1;SDS_P2;PMS_P1;PMS_P2;Temp;Humidity;BMP_temperature;BMP_pressure;BME280_temperature;BME280_humidity;BME280_pressure;Samples;Min_cycle;Max_cycle;Signal;HPM_P1;HPM_P2
2022/04/01 00:00:56;;;;;;;6.90;3.90;;;0.10;99.90;;;;;;4994004;28;20045;-46
2022/04/01 00:03:22;;;;;;;9.45;4.20;;;0.40;99.90;;;;;;5011714;28;20380;-44
2022/04/01 00:05:48;;;;;;;10.65;4.47;;;-0.10;99.90;;;;;;4994246;28;20509;-45
2022/04/01 00:08:13;;;;;;;9.43;3.85;;;0.30;99.90;;;;;;5010058;28;20076;-46
2022/04/01 00:10:40;;;;;;;8.70;4.22;;;0.00;99.90;;;;;;5011642;28;20085;-46
2022/04/01 00:13:06;;;;;;;9.15;4.18;;;0.10;99.90;;;;;;5009361;28;20041;-48
2022/04/01 00:15:32;;;;;;;6.05;3.90;;;0.40;99.90;;;;;;5010864;28;20046;-47
2022/04/01 00:17:58;;;;;;;7.28;4.32;;;0.10;99.90;;;;;;4990844;28;20042;-46
2022/04/01 00:20:23;;;;;;;7.18;4.22;;;0.50;99.90;;;;;;5010676;28;20033;-44
2022/04/01 00:22:49;;;;;;;8.30;4.15;;;0.20;99.90;;;;;;5011444;28;20034;-47
2022/04/01 00:25:15;;;;;;;9.35;4.10;;;-0.10;99.90;;;;;;5011255;28;20030;-46
2022/04/01 00:27:41;;;;;;;8.55;4.07;;;0.30;99.90;;;;;;5010929;28;20041;-44
2022/04/01 00:30:08;;;;;;;6.47;3.85;;;0.40;99.90;;;;;;5003530;28;20046;-45
2022/04/01 00:32:34;;;;;;;8.75;3.85;;;0.30;99.90;;;;;;4990641;28;20045;-44
2022/04/01 00:34:59;;;;;;;8.55;3.90;;;0.00;99.90;;;;;;5007212;28;20041;-45
2022/04/01 00:37:25;;;;;;;10.02;4.45;;;0.00;99.90;;;;;;5011079;28;20061;-44
2022/04/01 00:39:51;;;;;;;8.90;4.13;;;0.30;99.90;;;;;;5010928;28;20045;-47
2022/04/01 00:42:17;;;;;;;7.95;4.05;;;0.40;99.90;;;;;;5010929;28;20069;-48
2022/04/01 00:44:43;;;;;;;6.38;3.92;;;0.40;99.90;;;;;;5010980;28;20044;-46
2022/04/01 00:47:11;;;;;;;6.78;3.88;;;0.40;99.90;;;;;;5011270;28;20034;-48
2022/04/01 00:49:39;;;;;;;8.85;4.05;;;0.40;99.90;;;;;;4993011;28;20125;-45
2022/04/01 00:52:07;;;;;;;6.50;3.60;;;0.10;99.90;;;;;;5010898;28;20048;-45
2022/04/01 00:54:35;;;;;;;6.60;3.40;;;0.10;99.90;;;;;;5011021;28;20096;-44
2022/04/01 00:57:02;;;;;;;7.25;3.78;;;0.00;99.90;;;;;;5010840;28;20506;-48
2022/04/01 00:59:28;;;;;;;9.15;3.63;;;0.30;99.90;;;;;;5010078;28;20206;-45
2022/04/01 01:01:53;;;;;;;8.02;3.67;;;-0.10;99.90;;;;;;5010822;28;20041;-46
2022/04/01 01:04:20;;;;;;;9.77;3.50;;;0.30;99.90;;;;;;5010724;28;20108;-47
2022/04/01 01:06:52;;;;;;;6.78;3.40;;;0.20;99.90;;;;;;5010739;28;20046;-47
2022/04/01 01:09:19;;;;;;;7.85;3.70;;;0.30;99.90;;;;;;5010646;28;20048;-46
2022/04/01 01:11:47;;;;;;;9.40;3.63;;;0.00;99.90;;;;;;5010505;28;20041;-50
2022/04/01 01:14:14;;;;;;;8.95;3.55;;;0.00;99.90;;;;;;5002299;28;20036;-51
2022/04/01 01:16:42;;;;;;;9.57;3.90;;;0.30;99.90;;;;;;5009696;28;20046;-45
2022/04/01 01:19:13;;;;;;;6.03;2.88;;;0.40;99.90;;;;;;5010518;28;20457;-46
2022/04/01 01:21:40;;;;;;;8.55;3.53;;;0.20;99.90;;;;;;5010247;28;20069;-45
2022/04/01 01:24:08;;;;;;;6.47;3.40;;;0.00;99.90;;;;;;5010798;28;20038;-43
2022/04/01 01:26:36;;;;;;;7.72;3.30;;;0.10;99.90;;;;;;5010566;28;20112;-45
2022/04/01 01:29:04;;;;;;;6.53;3.20;;;0.30;99.90;;;;;;5010411;28;20507;-46
2022/04/01 01:31:30;;;;;;;5.55;3.22;;;-0.20;99.90;;;;;;4992769;28;20038;-44
2022/04/01 01:33:58;;;;;;;8.10;3.53;;;-0.10;99.90;;;;;;5009826;28;20041;-45
2022/04/01 01:36:27;;;;;;;6.50;3.28;;;0.10;99.90;;;;;;5010159;28;20137;-49
2022/04/01 01:38:54;;;;;;;6.28;3.22;;;0.20;99.90;;;;;;5009899;28;20115;-47
2022/04/01 01:41:20;;;;;;;6.40;3.30;;;0.00;99.90;;;;;;5010145;28;20073;-45
2022/04/01 01:43:46;;;;;;;7.88;3.08;;;0.30;99.90;;;;;;5002242;28;20060;-47
2022/04/01 01:46:12;;;;;;;8.18;3.22;;;-0.20;99.90;;;;;;5010426;28;20172;-48
2022/04/01 01:48:38;;;;;;;8.82;3.50;;;0.30;99.90;;;;;;5009874;28;20556;-47
2022/04/01 01:56:34;;;;;;;8.60;3.00;;;-0.20;99.90;;;;;;5008702;28;20044;-45
2022/04/01 01:59:00;;;;;;;6.70;2.90;;;0.10;99.90;;;;;;5009604;28;20072;-44
2022/04/01 02:01:25;;;;;;;7.07;3.03;;;-0.10;99.90;;;;;;5009779;28;20088;-47
2022/04/01 02:03:51;;;;;;;6.68;2.78;;;-0.20;99.90;;;;;;5010020;28;20501;-46
2022/04/01 02:06:21;;;;;;;6.32;2.95;;;0.10;99.90;;;;;;5009647;28;20033;-46
2022/04/01 02:08:48;;;;;;;5.75;3.10;;;0.30;99.90;;;;;;5009990;28;20080;-45
2022/04/01 02:11:14;;;;;;;7.20;3.30;;;0.10;99.90;;;;;;5011860;28;20041;-48
2022/04/01 02:13:39;;;;;;;13.00;3.10;;;0.30;99.90;;;;;;5013741;28;20129;-44
2022/04/01 02:16:05;;;;;;;7.10;3.25;;;-0.20;99.90;;;;;;5013356;28;20120;-46
2022/04/01 02:18:31;;;;;;;10.18;3.20;;;0.00;99.90;;;;;;5013544;28;20034;-43
2022/04/01 02:20:56;;;;;;;9.43;3.42;;;-0.10;99.90;;;;;;5013849;28;20124;-46
2022/04/01 02:23:22;;;;;;;7.57;3.53;;;0.10;99.90;;;;;;5012472;28;20064;-46
2022/04/01 02:25:48;;;;;;;7.88;3.65;;;0.30;99.90;;;;;;5013312;28;20467;-43
2022/04/01 02:28:13;;;;;;;6.43;3.40;;;0.10;99.90;;;;;;5013138;28;20038;-44
2022/04/01 02:30:40;;;;;;;5.65;3.10;;;0.20;99.90;;;;;;5013192;28;20448;-51
2022/04/01 02:33:06;;;;;;;7.38;3.60;;;-0.10;99.90;;;;;;5013505;28;20389;-48
2022/04/01 02:35:33;;;;;;;6.32;3.25;;;-0.20;99.90;;;;;;5013384;28;20045;-47
2022/04/01 02:37:59;;;;;;;8.50;3.42;;;0.20;99.90;;;;;;5013190;28;20054;-46
2022/04/01 02:40:25;;;;;;;7.38;3.58;;;0.10;99.90;;;;;;5012641;28;20088;-47
2022/04/01 02:42:53;;;;;;;7.07;3.72;;;-0.10;99.90;;;;;;5011853;28;20440;-48
2022/04/01 02:45:24;;;;;;;7.57;3.42;;;0.20;99.90;;;;;;5013068;28;20042;-45
2022/04/01 02:47:50;;;;;;;7.53;3.83;;;0.10;99.90;;;;;;5012796;28;20045;-47
2022/04/01 02:50:16;;;;;;;7.00;3.42;;;-0.20;99.90;;;;;;5013106;28;20036;-48
2022/04/01 02:52:42;;;;;;;7.43;3.40;;;-0.20;99.90;;;;;;5013073;28;20045;-43
2022/04/01 02:55:09;;;;;;;7.65;3.28;;;-0.30;99.90;;;;;;5013239;28;20465;-45
2022/04/01 02:57:34;;;;;;;7.70;3.58;;;0.00;99.90;;;;;;5012476;28;20042;-45
2022/04/01 03:00:00;;;;;;;9.02;3.33;;;0.00;99.90;;;;;;5013245;28;20049;-44
2022/04/01 03:02:26;;;;;;;8.77;3.60;;;-0.10;99.90;;;;;;5012873;28;20409;-44
2022/04/01 03:04:52;;;;;;;7.60;3.70;;;0.00;99.90;;;;;;5013115;28;20433;-44
2022/04/01 03:07:18;;;;;;;8.88;3.40;;;0.00;99.90;;;;;;5012939;28;20144;-47
2022/04/01 03:09:44;;;;;;;8.27;3.80;;;0.20;99.90;;;;;;5012876;28;20038;-45
2022/04/01 03:12:11;;;;;;;5.78;3.60;;;0.20;99.90;;;;;;5012955;28;20112;-47
2022/04/01 03:14:37;;;;;;;6.18;3.30;;;0.20;99.90;;;;;;5012852;28;20041;-47
2022/04/01 03:17:03;;;;;;;7.78;3.60;;;0.30;99.90;;;;;;5012556;28;20046;-49
2022/04/01 03:19:28;;;;;;;6.72;3.78;;;-0.10;99.90;;;;;;5012546;28;20044;-47
2022/04/01 03:21:55;;;;;;;6.93;3.50;;;-0.10;99.90;;;;;;5011931;28;20038;-46
2022/04/01 03:24:21;;;;;;;5.68;3.25;;;0.30;99.90;;;;;;5012108;28;20052;-44
2022/04/01 03:26:46;;;;;;;7.10;3.47;;;0.20;99.90;;;;;;5012312;28;20038;-46
2022/04/01 03:29:12;;;;;;;8.18;3.42;;;0.30;99.90;;;;;;5012347;28;20029;-47
2022/04/01 03:31:38;;;;;;;6.22;2.80;;;-0.20;99.90;;;;;;4994847;28;20057;-48
2022/04/01 03:34:05;;;;;;;7.88;3.47;;;-0.20;99.90;;;;;;5012787;28;20045;-48
2022/04/01 03:36:32;;;;;;;6.72;3.22;;;-0.10;99.90;;;;;;5012264;28;20052;-47
2022/04/01 03:38:58;;;;;;;8.02;3.38;;;0.30;99.90;;;;;;5011782;28;20084;-44
2022/04/01 03:41:23;;;;;;;10.20;3.22;;;-0.10;99.90;;;;;;5011973;28;20121;-45
2022/04/01 03:43:51;;;;;;;5.68;3.40;;;0.40;99.90;;;;;;5012158;28;20132;-49
2022/04/01 03:46:19;;;;;;;8.07;3.33;;;0.10;99.90;;;;;;5011548;28;20037;-46
2022/04/01 03:49:01;;;;;;;9.02;3.70;;;0.30;99.90;;;;;;5011971;28;20038;-43
2022/04/01 03:51:29;;;;;;;7.78;3.20;;;-0.20;99.90;;;;;;5011999;28;20072;-47
2022/04/01 03:54:03;;;;;;;6.47;3.10;;;-0.20;99.90;;;;;;4994160;28;20046;-44
2022/04/01 03:56:35;;;;;;;6.32;3.00;;;-0.10;99.90;;;;;;4978347;28;20054;-46
2022/04/01 03:59:08;;;;;;;6.65;3.22;;;0.10;99.90;;;;;;5011475;28;20049;-49
2022/04/01 04:01:38;;;;;;;6.68;3.03;;;0.40;99.90;;;;;;5011818;28;20132;-46
2022/04/01 04:04:04;;;;;;;6.65;3.42;;;0.10;99.90;;;;;;5011533;28;20500;-46
2022/04/01 04:06:34;;;;;;;8.73;3.50;;;-0.10;99.90;;;;;;5011524;28;20046;-45
2022/04/01 04:09:01;;;;;;;6.47;2.88;;;0.30;99.90;;;;;;5006361;28;20116;-45
2022/04/01 04:11:32;;;;;;;7.05;3.20;;;0.30;99.90;;;;;;5011620;28;20486;-47
2022/04/01 04:14:00;;;;;;;7.68;3.10;;;0.00;99.90;;;;;;5009046;28;20038;-46
2022/04/01 04:16:45;;;;;;;8.35;2.88;;;0.10;99.90;;;;;;5011063;28;20045;-50
2022/04/01 04:19:14;;;;;;;6.78;2.85;;;0.40;99.90;;;;;;5012437;28;20485;-46
2022/04/01 04:22:07;;;;;;;7.30;3.03;;;0.40;99.90;;;;;;5010827;28;20068;-44
2022/04/01 04:24:43;;;;;;;7.97;3.03;;;0.30;99.90;;;;;;5010949;28;20042;-45
2022/04/01 04:27:12;;;;;;;6.13;3.22;;;0.40;99.90;;;;;;5010405;28;20042;-45
2022/04/01 04:29:49;;;;;;;5.80;2.70;;;0.10;99.90;;;;;;5011290;28;20393;-49
2022/04/01 04:32:33;;;;;;;6.93;3.25;;;0.50;99.90;;;;;;5011318;28;20055;-44
2022/04/01 04:35:04;;;;;;;5.75;2.92;;;0.50;99.90;;;;;;5011388;28;20045;-45
2022/04/01 04:37:37;;;;;;;6.80;2.80;;;0.20;99.90;;;;;;5010677;28;20504;-49
2022/04/01 04:40:04;;;;;;;5.60;2.67;;;0.20;99.90;;;;;;5011066;28;20045;-46
2022/04/01 04:42:32;;;;;;;6.35;2.75;;;0.30;99.90;;;;;;5010764;28;20052;-46
2022/04/01 04:44:58;;;;;;;5.90;2.53;;;0.60;99.90;;;;;;5010909;28;20113;-45
2022/04/01 04:47:32;;;;;;;5.60;2.55;;;0.30;99.90;;;;;;5010783;28;20034;-44
2022/04/01 04:49:58;;;;;;;5.90;2.83;;;0.50;99.90;;;;;;5010472;28;20038;-46
2022/04/01 04:52:34;;;;;;;5.05;2.30;;;0.60;99.90;;;;;;5010877;28;20048;-45
2022/04/01 04:55:03;;;;;;;5.03;2.42;;;0.70;99.90;;;;;;5010794;28;20448;-45
2022/04/01 04:57:29;;;;;;;5.75;2.10;;;0.40;99.90;;;;;;5010367;28;20497;-47
2022/04/01 04:59:58;;;;;;;7.03;2.53;;;0.40;99.90;;;;;;5010669;28;20103;-45
2022/04/01 05:02:43;;;;;;;6.20;2.30;;;0.80;99.90;;;;;;5009918;28;20053;-44
2022/04/01 05:05:41;;;;;;;5.95;2.53;;;0.80;99.90;;;;;;5010723;28;20053;-46
2022/04/01 05:08:28;;;;;;;6.00;2.58;;;0.80;99.90;;;;;;4995819;28;20057;-47
2022/04/01 05:11:03;;;;;;;5.28;2.38;;;0.50;99.90;;;;;;5010205;28;20073;-46
2022/04/01 05:13:49;;;;;;;6.38;2.30;;;0.80;99.90;;;;;;5010534;28;20497;-44
2022/04/01 05:16:30;;;;;;;6.85;2.28;;;0.50;99.90;;;;;;4993015;28;20054;-46
2022/04/01 05:19:03;;;;;;;5.93;2.20;;;0.80;99.90;;;;;;4992243;28;20038;-47
2022/04/01 05:21:52;;;;;;;3.80;1.95;;;0.80;99.90;;;;;;5010161;28;20511;-46
2022/04/01 05:24:26;;;;;;;6.07;2.00;;;0.80;99.90;;;;;;5010263;28;20046;-50
2022/04/01 05:26:55;;;;;;;6.20;2.35;;;0.90;99.90;;;;;;5010776;28;20437;-45
2022/04/01 05:29:26;;;;;;;7.22;2.20;;;0.60;99.90;;;;;;5009690;28;20042;-47
2022/04/01 05:32:05;;;;;;;5.68;2.33;;;0.90;99.90;;;;;;5010325;28;20073;-45
2022/04/01 05:34:43;;;;;;;5.00;2.22;;;0.70;99.90;;;;;;5010408;28;20049;-49
2022/04/01 05:37:09;;;;;;;6.93;1.80;;;0.80;99.90;;;;;;5010500;28;20535;-46
2022/04/01 05:39:39;;;;;;;4.55;1.88;;;0.80;99.90;;;;;;5009604;28;20046;-46
2022/04/01 05:42:09;;;;;;;7.15;2.20;;;0.90;99.90;;;;;;5009640;28;20077;-45
2022/04/01 05:44:36;;;;;;;6.35;2.00;;;0.70;99.90;;;;;;5009557;28;20034;-47
2022/04/01 05:47:03;;;;;;;5.25;2.30;;;1.00;99.90;;;;;;5009646;28;20042;-45
2022/04/01 05:49:30;;;;;;;7.28;2.15;;;0.80;99.90;;;;;;5010126;28;20104;-44
2022/04/01 05:51:57;;;;;;;4.70;1.80;;;0.80;99.90;;;;;;5010049;28;20481;-46
2022/04/01 05:54:26;;;;;;;8.30;1.95;;;1.00;99.90;;;;;;4992116;28;20057;-44
2022/04/01 05:56:52;;;;;;;5.32;1.98;;;0.90;99.90;;;;;;5009893;28;20034;-51
2022/04/01 05:59:22;;;;;;;5.65;1.80;;;0.90;99.90;;;;;;5009199;28;20113;-48
2022/04/01 06:02:25;;;;;;;6.82;1.80;;;0.90;99.90;;;;;;4992209;28;20496;-44
2022/04/01 06:05:19;;;;;;;5.75;1.50;;;1.00;99.90;;;;;;5009669;28;20049;-44
2022/04/01 06:08:19;;;;;;;8.02;2.03;;;1.00;99.90;;;;;;5010172;28;20489;-45
2022/04/01 06:11:06;;;;;;;3.42;1.38;;;1.00;99.90;;;;;;5009586;28;20038;-46
2022/04/01 06:13:45;;;;;;;4.25;1.75;;;1.30;99.90;;;;;;5009900;28;20538;-46
2022/04/01 06:16:29;;;;;;;7.00;1.70;;;1.30;99.90;;;;;;5009850;28;20042;-44
2022/04/01 06:19:10;;;;;;;6.57;2.10;;;1.20;99.90;;;;;;5009756;28;20034;-45
2022/04/01 06:21:47;;;;;;;7.10;1.75;;;1.30;99.90;;;;;;5009775;28;20037;-47
2022/04/01 06:24:52;;;;;;;5.72;1.60;;;1.30;99.90;;;;;;5009659;28;20038;-47
2022/04/01 06:27:23;;;;;;;4.72;1.80;;;1.30;99.90;;;;;;4991596;28;20070;-45
2022/04/01 06:30:05;;;;;;;5.57;1.30;;;1.50;99.90;;;;;;5005640;28;20101;-48
2022/04/01 06:32:40;;;;;;;5.45;1.63;;;1.40;99.90;;;;;;5008751;28;20038;-46
2022/04/01 06:35:06;;;;;;;3.70;1.55;;;1.50;99.90;;;;;;5009653;28;20558;-49
2022/04/01 06:38:03;;;;;;;4.68;1.55;;;1.60;99.90;;;;;;5009496;28;20351;-46
2022/04/01 06:40:51;;;;;;;5.57;1.70;;;1.50;99.90;;;;;;4989876;28;20052;-47
2022/04/01 06:43:17;;;;;;;5.03;1.80;;;1.50;99.90;;;;;;5009521;28;20046;-48
2022/04/01 06:45:43;;;;;;;4.90;1.70;;;1.60;99.90;;;;;;4988678;28;20389;-47
2022/04/01 06:48:09;;;;;;;5.65;1.58;;;1.60;99.90;;;;;;5000348;28;20117;-49
2022/04/01 06:50:34;;;;;;;4.47;1.52;;;1.70;99.90;;;;;;4990640;28;20108;-47
2022/04/01 06:53:00;;;;;;;7.38;1.98;;;1.60;99.90;;;;;;4994168;28;20053;-45
2022/04/01 06:55:26;;;;;;;3.70;1.52;;;1.70;99.90;;;;;;5001006;28;20046;-46
2022/04/01 06:57:52;;;;;;;5.88;1.27;;;1.80;99.90;;;;;;5002208;28;20463;-45
2022/04/01 07:00:19;;;;;;;4.45;1.48;;;1.70;99.90;;;;;;5003870;28;20105;-46
2022/04/01 07:02:46;;;;;;;7.28;1.55;;;1.70;99.90;;;;;;5002095;28;20058;-45
2022/04/01 07:05:12;;;;;;;3.88;1.52;;;1.80;99.90;;;;;;5004264;28;20106;-46
2022/04/01 07:07:43;;;;;;;6.28;1.55;;;1.80;99.90;;;;;;5003783;28;20044;-47
2022/04/01 07:10:11;;;;;;;3.78;1.60;;;1.80;99.90;;;;;;5000216;28;20038;-45
2022/04/01 07:12:37;;;;;;;3.83;1.48;;;1.90;99.90;;;;;;4978547;28;20477;-46
2022/04/01 07:15:04;;;;;;;5.20;1.42;;;1.90;99.90;;;;;;4999577;28;20599;-42
2022/04/01 07:17:30;;;;;;;4.38;1.42;;;2.00;99.90;;;;;;4999425;28;20080;-43
2022/04/01 07:19:55;;;;;;;3.30;1.50;;;2.00;99.90;;;;;;4992442;28;20041;-47
2022/04/01 07:22:21;;;;;;;5.65;1.70;;;2.00;99.90;;;;;;4988043;28;20291;-45
2022/04/01 07:24:47;;;;;;;4.65;1.70;;;2.10;99.90;;;;;;5001065;28;20042;-43
2022/04/01 07:27:14;;;;;;;5.68;1.45;;;2.00;99.90;;;;;;5000259;28;20074;-46
2022/04/01 07:29:40;;;;;;;5.50;1.50;;;2.10;99.90;;;;;;4999635;28;20038;-46
2022/04/01 07:34:51;;;;;;;;;;;2.20;99.90;;;;;;5000313;28;20129;-46
2022/04/01 07:37:21;;;;;;;6.82;1.63;;;2.20;99.90;;;;;;4997433;28;20075;-45
2022/04/01 07:39:48;;;;;;;6.30;1.90;;;2.20;99.90;;;;;;4998386;28;20397;-47
2022/04/01 07:42:14;;;;;;;6.90;1.95;;;2.30;99.90;;;;;;4996404;28;20049;-46
2022/04/01 07:44:39;;;;;;;3.40;1.42;;;2.40;99.90;;;;;;4996572;28;20405;-46
2022/04/01 07:47:09;;;;;;;5.28;1.50;;;2.30;99.90;;;;;;4998657;28;20040;-48
2022/04/01 07:49:37;;;;;;;5.70;1.77;;;2.50;99.90;;;;;;4997845;28;20448;-48
2022/04/01 07:52:08;;;;;;;4.82;1.80;;;2.30;99.90;;;;;;4996928;28;20416;-45
2022/04/01 07:54:35;;;;;;;4.55;1.80;;;2.30;99.90;;;;;;4997733;28;20108;-45
2022/04/01 07:57:04;;;;;;;4.07;1.52;;;2.30;99.90;;;;;;4988663;28;20480;-45
2022/04/01 07:59:29;;;;;;;3.80;1.60;;;2.30;99.90;;;;;;4995755;28;20487;-49
2022/04/01 08:01:55;;;;;;;7.30;1.52;;;2.30;99.90;;;;;;4990166;28;20034;-46
2022/04/01 08:04:21;;;;;;;3.33;1.75;;;2.40;99.90;;;;;;4994675;28;20136;-46
2022/04/01 08:06:46;;;;;;;6.97;1.95;;;2.90;99.90;;;;;;4997024;28;20040;-47
2022/04/01 08:09:12;;;;;;;5.35;1.67;;;2.40;99.90;;;;;;4996386;28;20477;-47
2022/04/01 08:11:38;;;;;;;6.97;1.83;;;2.40;99.90;;;;;;4997004;28;20042;-47
2022/04/01 08:14:04;;;;;;;6.28;1.95;;;2.50;99.90;;;;;;4996155;28;20037;-45
2022/04/01 08:16:30;;;;;;;8.32;1.83;;;2.50;99.90;;;;;;4995356;28;20543;-44
2022/04/01 08:18:56;;;;;;;3.47;1.50;;;2.60;99.90;;;;;;4997115;28;20038;-46
2022/04/01 08:21:22;;;;;;;4.07;1.73;;;2.50;99.90;;;;;;4997910;28;20103;-45
2022/04/01 08:23:48;;;;;;;4.60;1.92;;;2.50;99.90;;;;;;4997722;28;20046;-49
2022/04/01 08:26:14;;;;;;;6.25;1.80;;;2.50;99.90;;;;;;4999189;28;20422;-43
2022/04/01 08:28:40;;;;;;;5.53;1.83;;;2.40;99.90;;;;;;4996174;28;20489;-49
2022/04/01 08:31:09;;;;;;;5.15;1.67;;;2.50;99.90;;;;;;4995879;28;20451;-46
2022/04/01 08:33:36;;;;;;;3.60;1.50;;;2.50;99.90;;;;;;4994466;28;20485;-47
2022/04/01 08:36:02;;;;;;;3.67;1.70;;;2.60;99.90;;;;;;4996572;28;20528;-45
2022/04/01 08:38:29;;;;;;;5.50;1.80;;;2.60;99.90;;;;;;4990569;28;20082;-48
2022/04/01 08:40:55;;;;;;;5.25;1.95;;;2.70;99.90;;;;;;4981627;28;20035;-49
2022/04/01 08:43:29;;;;;;;5.25;1.77;;;2.80;99.90;;;;;;4981442;28;20042;-47
2022/04/01 08:45:57;;;;;;;4.57;2.05;;;2.70;99.90;;;;;;4961156;28;20041;-46
2022/04/01 08:48:24;;;;;;;9.20;2.30;;;2.60;99.90;;;;;;4987689;28;20112;-49
2022/04/01 08:50:50;;;;;;;5.40;2.35;;;2.70;99.90;;;;;;4983072;28;20066;-47
2022/04/01 08:53:17;;;;;;;7.63;2.47;;;2.60;99.90;;;;;;4980014;28;20073;-48
2022/04/01 08:55:47;;;;;;;5.15;2.58;;;2.60;99.90;;;;;;4980811;28;20029;-48
2022/04/01 08:58:16;;;;;;;6.40;3.10;;;2.70;99.90;;;;;;4978114;28;20568;-48
2022/04/01 09:00:43;;;;;;;8.25;2.90;;;2.80;99.90;;;;;;4976761;28;20038;-47
2022/04/01 09:03:10;;;;;;;7.68;3.05;;;2.80;99.90;;;;;;4978404;28;20043;-48
2022/04/01 09:05:38;;;;;;;6.97;3.05;;;3.60;99.90;;;;;;4978557;28;20030;-49
2022/04/01 09:08:08;;;;;;;7.28;3.33;;;2.80;99.90;;;;;;4977457;28;20489;-51
2022/04/01 09:10:56;;;;;;;7.28;3.67;;;2.90;99.90;;;;;;4979752;28;20553;-47
2022/04/01 09:13:34;;;;;;;5.88;3.20;;;2.90;99.90;;;;;;4970691;28;20069;-47
2022/04/01 09:16:01;;;;;;;7.63;3.85;;;3.00;99.90;;;;;;4979113;28;20034;-46
2022/04/01 09:18:44;;;;;;;7.50;3.80;;;3.20;99.90;;;;;;4980365;28;20042;-47
2022/04/01 09:21:13;;;;;;;6.80;3.63;;;3.20;99.90;;;;;;4980657;28;20393;-46
2022/04/01 09:23:47;;;;;;;7.60;3.70;;;3.40;99.90;;;;;;4978687;28;20038;-47
2022/04/01 09:26:13;;;;;;;;;;;3.40;99.90;;;;;;4978923;28;20031;-49
2022/04/01 09:28:41;;;;;;;8.43;3.72;;;3.40;99.90;;;;;;4977415;28;19926;-49
2022/04/01 09:31:11;;;;;;;8.27;3.75;;;3.60;99.90;;;;;;4974704;28;20042;-48
2022/04/01 09:33:43;;;;;;;7.28;3.83;;;3.70;99.90;;;;;;4985906;28;20038;-45
2022/04/01 09:36:29;;;;;;;9.00;4.38;;;3.40;99.90;;;;;;4992503;28;20038;-47
2022/04/01 09:39:03;;;;;;;8.07;4.15;;;3.50;99.90;;;;;;4998331;28;20125;-46
2022/04/01 09:41:46;;;;;;;8.45;3.83;;;3.50;99.90;;;;;;5001602;28;20034;-47
2022/04/01 09:44:19;;;;;;;9.02;3.95;;;3.40;99.90;;;;;;5001142;28;20037;-47
2022/04/01 09:46:59;;;;;;;8.60;4.63;;;3.50;99.90;;;;;;5001851;28;20454;-49
2022/04/01 09:49:30;;;;;;;10.10;4.38;;;3.60;99.90;;;;;;5006816;28;20351;-47
2022/04/01 09:51:57;;;;;;;8.40;4.47;;;3.40;99.90;;;;;;5007755;28;20409;-49
2022/04/01 09:54:24;;;;;;;8.48;4.70;;;3.50;99.90;;;;;;5006090;28;20057;-45
2022/04/01 09:56:54;;;;;;;8.48;4.60;;;3.40;99.90;;;;;;5003077;28;20137;-46
2022/04/01 09:59:21;;;;;;;8.07;4.93;;;3.40;99.90;;;;;;5004916;28;20044;-47
2022/04/01 10:01:47;;;;;;;8.65;4.97;;;3.30;99.90;;;;;;5006450;28;20056;-47
2022/04/01 10:04:14;;;;;;;9.38;5.28;;;3.40;99.90;;;;;;5006428;28;20049;-48
2022/04/01 10:06:40;;;;;;;7.85;4.60;;;3.40;99.90;;;;;;5009598;28;20038;-47
2022/04/01 10:09:08;;;;;;;9.18;5.15;;;3.50;99.90;;;;;;5009857;28;20081;-45
2022/04/01 10:11:37;;;;;;;8.82;4.82;;;3.20;99.90;;;;;;5010147;28;20034;-47
2022/04/01 10:14:11;;;;;;;7.82;4.90;;;3.30;99.90;;;;;;5009928;28;20045;-45
2022/04/01 10:16:41;;;;;;;11.40;5.10;;;3.40;99.90;;;;;;5010129;28;20056;-44
2022/04/01 10:19:11;;;;;;;8.55;4.68;;;3.40;99.90;;;;;;5010241;28;20086;-48
2022/04/01 10:21:41;;;;;;;8.77;4.72;;;3.40;99.90;;;;;;5009651;28;20042;-49
2022/04/01 10:24:34;;;;;;;9.18;4.95;;;3.40;99.90;;;;;;5006547;28;20103;-45
2022/04/01 10:27:23;;;;;;;9.57;5.05;;;3.70;99.90;;;;;;5009669;28;20045;-45
2022/04/01 10:29:49;;;;;;;7.53;4.65;;;3.80;99.90;;;;;;5009397;28;20030;-46
2022/04/01 10:32:21;;;;;;;8.13;5.28;;;3.80;99.90;;;;;;5011658;28;20044;-49
2022/04/01 10:34:47;;;;;;;8.52;5.38;;;3.70;99.90;;;;;;5013393;28;20052;-47
2022/04/01 10:37:15;;;;;;;9.18;5.55;;;3.60;99.90;;;;;;4995601;28;20041;-51
2022/04/01 10:40:15;;;;;;;9.05;5.70;;;3.80;99.90;;;;;;5013195;28;20136;-49
2022/04/01 10:42:41;;;;;;;8.68;5.30;;;3.90;99.90;;;;;;5013445;28;20069;-47
2022/04/01 10:45:22;;;;;;;8.93;5.25;;;3.70;99.90;;;;;;5009133;28;20070;-47
2022/04/01 10:51:37;;;;;;;10.18;5.45;;;3.60;99.90;;;;;;5009680;28;20431;-46
2022/04/01 10:54:14;;;;;;;11.35;5.65;;;3.80;99.90;;;;;;5012419;28;20500;-48
2022/04/01 10:56:54;;;;;;;9.60;5.32;;;3.70;99.90;;;;;;4993831;28;20046;-47
2022/04/01 10:59:25;;;;;;;9.82;5.30;;;3.40;99.90;;;;;;5013024;28;20046;-47
2022/04/01 11:01:53;;;;;;;8.13;5.20;;;3.40;99.90;;;;;;5013066;28;20041;-47
2022/04/01 11:04:19;;;;;;;9.65;5.18;;;3.40;99.90;;;;;;5012976;28;20053;-49
2022/04/01 11:07:11;;;;;;;9.93;5.30;;;3.70;99.90;;;;;;5012949;28;20049;-46
2022/04/01 11:09:46;;;;;;;9.00;5.50;;;3.60;99.90;;;;;;5011169;28;20096;-51
2022/04/01 11:12:15;;;;;;;8.70;4.70;;;3.50;99.90;;;;;;5012709;28;20034;-48
2022/04/01 11:17:34;;;;;;;9.70;5.68;;;4.00;99.90;;;;;;5003584;28;20512;-48
2022/04/01 11:20:06;;;;;;;8.68;5.47;;;4.30;99.90;;;;;;5004611;28;20540;-45
2022/04/01 11:22:42;;;;;;;11.98;5.35;;;4.60;99.90;;;;;;5003549;28;20112;-51
2022/04/01 11:25:31;;;;;;;11.25;4.50;;;4.50;99.90;;;;;;5002206;28;20041;-48
2022/04/01 11:27:57;;;;;;;10.02;4.13;;;4.40;99.90;;;;;;5000353;28;20117;-50
2022/04/01 11:30:33;;;;;;;5.55;3.40;;;4.40;99.90;;;;;;4994296;28;20087;-49
2022/04/01 11:33:18;;;;;;;6.03;3.25;;;4.30;99.90;;;;;;4994056;28;20048;-50
2022/04/01 11:35:48;;;;;;;5.10;3.08;;;4.50;99.90;;;;;;4997859;28;20411;-51
2022/04/01 11:38:18;;;;;;;5.03;3.08;;;4.70;99.90;;;;;;4997252;28;20507;-49
2022/04/01 11:40:46;;;;;;;4.88;2.50;;;5.20;99.90;;;;;;5001034;28;20037;-47
2022/04/01 11:43:14;;;;;;;4.45;2.33;;;4.90;99.90;;;;;;4999123;28;20489;-47
2022/04/01 11:45:54;;;;;;;7.18;2.50;;;4.80;99.90;;;;;;4977394;28;20137;-46
2022/04/01 11:48:34;;;;;;;5.70;2.70;;;4.80;99.90;;;;;;5009015;28;20092;-50
2022/04/01 11:51:12;;;;;;;5.13;1.98;;;4.70;99.90;;;;;;5008436;28;20026;-49
2022/04/01 11:53:50;;;;;;;4.43;2.35;;;4.70;99.90;;;;;;5009578;28;20374;-48
2022/04/01 11:56:18;;;;;;;5.30;2.30;;;4.50;99.90;;;;;;5004416;28;20103;-51
2022/04/01 11:58:47;;;;;;;5.63;2.45;;;4.60;99.90;;;;;;5005656;28;20552;-48
2022/04/01 12:01:13;;;;;;;4.85;2.05;;;4.80;99.90;;;;;;4988990;28;20034;-45
2022/04/01 12:03:38;;;;;;;4.03;1.92;;;5.00;99.90;;;;;;5009189;28;20041;-46
2022/04/01 12:08:49;;;;;;;5.95;2.40;;;5.50;99.90;;;;;;5008371;28;20508;-48
2022/04/01 12:11:15;;;;;;;4.35;2.15;;;5.40;99.90;;;;;;5009732;28;20038;-47
2022/04/01 12:13:50;;;;;;;4.45;1.85;;;5.10;99.90;;;;;;5009798;28;20046;-47
2022/04/01 12:16:18;;;;;;;3.67;2.10;;;4.70;99.90;;;;;;5010645;28;20045;-47
2022/04/01 12:18:49;;;;;;;6.70;2.35;;;4.70;99.90;;;;;;5005440;28;20061;-47
2022/04/01 12:21:24;;;;;;;8.20;2.20;;;4.50;99.90;;;;;;5009967;28;20042;-50
2022/04/01 12:23:51;;;;;;;5.78;1.80;;;4.50;99.90;;;;;;5008644;28;20042;-50
2022/04/01 12:26:25;;;;;;;5.28;2.10;;;4.80;99.90;;;;;;5009556;28;20030;-49
2022/04/01 12:28:51;;;;;;;4.75;1.75;;;4.90;99.90;;;;;;5008812;28;20041;-52
2022/04/01 12:31:21;;;;;;;4.05;1.52;;;4.90;99.90;;;;;;5010349;28;20037;-50
2022/04/01 12:33:55;;;;;;;3.67;1.75;;;5.00;99.90;;;;;;5008453;28;20386;-51
2022/04/01 12:36:34;;;;;;;5.15;1.90;;;5.50;99.90;;;;;;5007549;28;20042;-47
2022/04/01 12:39:12;;;;;;;4.18;1.67;;;5.60;99.90;;;;;;5007188;28;20058;-50
2022/04/01 12:42:19;;;;;;;6.68;2.03;;;5.40;99.90;;;;;;5010110;28;20042;-49
2022/04/01 12:44:45;;;;;;;4.68;2.10;;;5.20;99.90;;;;;;5009568;28;20050;-50
2022/04/01 12:47:12;;;;;;;3.22;1.60;;;5.50;99.90;;;;;;5008925;28;20041;-49
2022/04/01 12:49:42;;;;;;;5.88;1.80;;;5.60;99.90;;;;;;5007708;28;20052;-48
2022/04/01 12:52:15;;;;;;;5.60;1.90;;;5.80;99.90;;;;;;5007366;28;20412;-49
2022/04/01 12:54:47;;;;;;;4.03;1.67;;;6.00;99.90;;;;;;4992587;28;20503;-46
2022/04/01 12:57:13;;;;;;;3.17;1.40;;;6.00;99.90;;;;;;5009004;28;20393;-47
2022/04/01 12:59:45;;;;;;;4.03;1.55;;;6.10;99.90;;;;;;5009528;28;20092;-51
2022/04/01 13:02:17;;;;;;;4.55;1.63;;;5.90;99.90;;;;;;5009182;28;20045;-49
2022/04/01 13:04:45;;;;;;;5.22;1.40;;;5.90;99.90;;;;;;5008489;28;20038;-49
2022/04/01 13:07:27;;;;;;;4.70;1.70;;;6.30;99.90;;;;;;4991597;28;20132;-48
2022/04/01 13:10:06;;;;;;;3.47;1.52;;;6.30;99.90;;;;;;5009341;28;20061;-50
2022/04/01 13:12:39;;;;;;;4.82;1.70;;;6.20;99.90;;;;;;5008112;28;20042;-48
2022/04/01 13:15:17;;;;;;;3.63;1.70;;;6.10;99.90;;;;;;5008511;28;20046;-51
2022/04/01 13:17:50;;;;;;;6.03;1.75;;;6.20;99.90;;;;;;5009082;28;20370;-49
2022/04/01 13:20:24;;;;;;;5.13;1.60;;;6.00;99.90;;;;;;5008399;28;20121;-47
2022/04/01 13:22:50;;;;;;;4.45;1.73;;;6.00;99.90;;;;;;5009206;28;20121;-50
2022/04/01 13:25:17;;;;;;;4.43;1.95;;;6.60;99.90;;;;;;4991849;28;20054;-47
2022/04/01 13:27:44;;;;;;;3.90;1.80;;;6.70;99.90;;;;;;5008389;28;20041;-50
2022/04/01 13:30:12;;;;;;;3.40;1.50;;;6.70;99.90;;;;;;5009123;28;20535;-51